Time;durP1;ratioP1;P1;durP2;ratioP2;P2;SDS_P1;SDS_P2;PMS_P1;PMS_P2;Temp;Humidity;BMP_temperature;BMP_pressure;BME280_temperature;BME280_humidity;BME280_pressure;Samples;Min_cycle;Max_cycle;Signal;HPM_P1;HPM_P2
2022/08/02 00:00:01;;;;;;;3.65;2.20;;;;;;;;;;5081072;27;20321;-54
2022/08/02 00:02:27;;;;;;;4.32;2.10;;;;;;;;;;5078625;27;20805;-53
2022/08/02 00:04:54;;;;;;;2.17;1.98;;;;;;;;;;5073832;27;20243;-52
2022/08/02 00:07:20;;;;;;;3.97;2.47;;;;;;;;;;5081301;27;20234;-53
2022/08/02 00:09:46;;;;;;;3.08;2.40;;;;;;;;;;5084317;27;20241;-53
2022/08/02 00:12:13;;;;;;;2.47;2.22;;;;;;;;;;5081838;27;20603;-52
2022/08/02 00:14:40;;;;;;;3.72;2.80;;;;;;;;;;5079524;27;20254;-52
2022/08/02 00:17:07;;;;;;;3.40;2.20;;;;;;;;;;5078775;27;20253;-52
2022/08/02 00:19:33;;;;;;;4.32;2.72;;;;;;;;;;5085604;27;20231;-54
2022/08/02 00:22:00;;;;;;;5.20;2.90;;;;;;;;;;5084568;28;20235;-52
2022/08/02 00:24:26;;;;;;;3.15;2.78;;;;;;;;;;5084193;27;20231;-53
2022/08/02 00:26:52;;;;;;;3.25;2.30;;;;;;;;;;5076092;27;20309;-53
2022/08/02 00:29:19;;;;;;;2.97;1.98;;;;;;;;;;5082050;27;20233;-53
2022/08/02 00:31:46;;;;;;;3.05;2.03;;;;;;;;;;5082713;27;20242;-52
2022/08/02 00:34:13;;;;;;;2.85;2.42;;;;;;;;;;5089413;27;20330;-52
2022/08/02 00:36:39;;;;;;;2.72;2.25;;;;;;;;;;5079564;27;20222;-53
2022/08/02 00:39:06;;;;;;;4.70;2.25;;;;;;;;;;5077993;27;20235;-53
2022/08/02 00:41:32;;;;;;;2.85;2.35;;;;;;;;;;5079258;27;20230;-53
2022/08/02 00:43:58;;;;;;;2.97;1.85;;;;;;;;;;5082749;27;20241;-52
2022/08/02 00:46:25;;;;;;;3.40;2.30;;;;;;;;;;5079609;27;20235;-53
2022/08/02 00:48:54;;;;;;;3.38;2.05;;;;;;;;;;5084542;27;20229;-53
2022/08/02 00:51:21;;;;;;;4.25;2.50;;;;;;;;;;5077916;27;20249;-53
2022/08/02 00:53:47;;;;;;;2.70;2.20;;;;;;;;;;5084650;27;20284;-53
2022/08/02 00:56:14;;;;;;;2.28;1.98;;;;;;;;;;5072689;27;20230;-52
2022/08/02 00:58:40;;;;;;;6.65;2.30;;;;;;;;;;5087623;27;20229;-54
2022/08/02 01:01:06;;;;;;;2.65;2.08;;;;;;;;;;5075872;27;20234;-52
2022/08/02 01:03:33;;;;;;;4.07;2.63;;;;;;;;;;5087536;27;20230;-58
2022/08/02 01:06:00;;;;;;;2.28;2.03;;;;;;;;;;5081956;27;20246;-53
2022/08/02 01:08:27;;;;;;;3.15;2.50;;;;;;;;;;5080353;27;20245;-53
2022/08/02 01:10:53;;;;;;;3.42;2.38;;;;;;;;;;5081065;27;20242;-53
2022/08/02 01:13:20;;;;;;;3.20;2.80;;;;;;;;;;5084214;27;20227;-53
2022/08/02 01:15:50;;;;;;;3.92;2.42;;;;;;;;;;5085555;27;20233;-52
2022/08/02 01:18:28;;;;;;;2.65;2.20;;;;;;;;;;5084040;27;20703;-53
2022/08/02 01:21:13;;;;;;;2.65;2.42;;;;;;;;;;5081552;27;20585;-52
2022/08/02 01:23:48;;;;;;;3.38;2.47;;;;;;;;;;5081351;27;20227;-53
2022/08/02 01:26:26;;;;;;;2.10;1.95;;;;;;;;;;5084711;27;20312;-52
2022/08/02 01:28:57;;;;;;;2.85;2.45;;;;;;;;;;5083846;27;20226;-53
2022/08/02 01:31:26;;;;;;;3.13;2.10;;;;;;;;;;5082124;27;20242;-53
2022/08/02 01:33:56;;;;;;;3.63;2.40;;;;;;;;;;5083787;27;20235;-53
2022/08/02 01:36:26;;;;;;;2.30;2.08;;;;;;;;;;5082124;27;20321;-52
2022/08/02 01:38:53;;;;;;;2.85;1.80;;;;;;;;;;5081071;27;20318;-53
2022/08/02 01:41:20;;;;;;;2.63;1.80;;;;;;;;;;5088491;27;20242;-54
2022/08/02 01:43:49;;;;;;;1.92;1.80;;;;;;;;;;5081073;27;20237;-53
2022/08/02 01:46:17;;;;;;;3.40;1.77;;;;;;;;;;5075748;27;20231;-53
2022/08/02 01:48:45;;;;;;;3.33;1.67;;;;;;;;;;5076371;28;20237;-53
2022/08/02 01:51:12;;;;;;;2.45;1.50;;;;;;;;;;5080185;27;20233;-53
2022/08/02 01:53:39;;;;;;;4.28;1.58;;;;;;;;;;5083277;27;20234;-53
2022/08/02 01:56:05;;;;;;;6.05;2.15;;;;;;;;;;5081612;27;20476;-53
2022/08/02 01:58:34;;;;;;;5.13;1.80;;;;;;;;;;5082479;27;20231;-52
2022/08/02 02:01:01;;;;;;;1.83;1.73;;;;;;;;;;5080922;27;20609;-53
2022/08/02 02:03:29;;;;;;;2.88;1.60;;;;;;;;;;5085994;27;20226;-53
2022/08/02 02:05:57;;;;;;;3.70;1.67;;;;;;;;;;5080714;27;20238;-51
2022/08/02 02:08:24;;;;;;;3.05;2.05;;;;;;;;;;5082094;27;20242;-54
2022/08/02 02:10:52;;;;;;;1.75;1.35;;;;;;;;;;5075632;27;20238;-54
2022/08/02 02:13:19;;;;;;;5.20;1.90;;;;;;;;;;5083005;27;20593;-54
2022/08/02 02:15:50;;;;;;;3.58;1.80;;;;;;;;;;5080412;27;20222;-53
2022/08/02 02:18:18;;;;;;;3.20;1.40;;;;;;;;;;5084092;27;20230;-53
2022/08/02 02:20:46;;;;;;;2.15;1.90;;;;;;;;;;5082146;27;20238;-52
2022/08/02 02:23:12;;;;;;;3.58;1.60;;;;;;;;;;5084436;27;20257;-52
2022/08/02 02:25:40;;;;;;;2.40;1.80;;;;;;;;;;5079504;27;20276;-53
2022/08/02 02:28:07;;;;;;;4.18;2.00;;;;;;;;;;5085796;27;20771;-53
2022/08/02 02:30:35;;;;;;;3.25;2.20;;;;;;;;;;5082418;27;20230;-54
2022/08/02 02:33:02;;;;;;;2.35;1.65;;;;;;;;;;5082945;27;20227;-53
2022/08/02 02:35:29;;;;;;;4.60;1.73;;;;;;;;;;5081406;27;20250;-53
2022/08/02 02:37:59;;;;;;;2.50;1.88;;;;;;;;;;5079684;27;20233;-53
2022/08/02 02:40:26;;;;;;;2.78;1.65;;;;;;;;;;5083160;27;20245;-53
2022/08/02 02:42:53;;;;;;;2.72;1.77;;;;;;;;;;5082512;27;20230;-53
2022/08/02 02:45:20;;;;;;;4.80;1.88;;;;;;;;;;5077604;27;20715;-53
2022/08/02 02:47:48;;;;;;;5.63;2.28;;;;;;;;;;5080287;27;20314;-52
2022/08/02 02:50:16;;;;;;;3.55;2.35;;;;;;;;;;5090710;27;20321;-52
2022/08/02 02:52:42;;;;;;;3.10;2.28;;;;;;;;;;5081724;27;20239;-53
2022/08/02 02:55:11;;;;;;;2.38;1.77;;;;;;;;;;5085558;27;20253;-53
2022/08/02 02:57:37;;;;;;;5.43;2.30;;;;;;;;;;5071844;27;20230;-53
2022/08/02 03:00:04;;;;;;;2.47;1.83;;;;;;;;;;5077974;27;20254;-54
2022/08/02 03:02:31;;;;;;;3.75;2.42;;;;;;;;;;5072342;27;20235;-53
2022/08/02 03:05:01;;;;;;;5.03;2.05;;;;;;;;;;5079202;27;20261;-53
2022/08/02 03:07:27;;;;;;;5.63;2.35;;;;;;;;;;5082876;27;20243;-53
2022/08/02 03:09:54;;;;;;;4.03;2.50;;;;;;;;;;5073661;27;20273;-53
2022/08/02 03:12:22;;;;;;;2.70;2.45;;;;;;;;;;5078188;27;20609;-53
2022/08/02 03:14:48;;;;;;;4.95;2.65;;;;;;;;;;5083564;27;20226;-53
2022/08/02 03:17:15;;;;;;;2.88;2.60;;;;;;;;;;5077185;27;20317;-53
2022/08/02 03:19:42;;;;;;;4.97;2.35;;;;;;;;;;5087056;27;20314;-53
2022/08/02 03:22:08;;;;;;;3.10;2.13;;;;;;;;;;5080073;27;20226;-52
2022/08/02 03:24:34;;;;;;;5.63;2.63;;;;;;;;;;5083211;27;20231;-53
2022/08/02 03:27:01;;;;;;;3.00;1.98;;;;;;;;;;5090147;27;20239;-52
2022/08/02 03:29:28;;;;;;;2.70;2.50;;;;;;;;;;5081491;27;20235;-52
2022/08/02 03:31:55;;;;;;;5.78;2.92;;;;;;;;;;5087245;27;20241;-53
2022/08/02 03:34:22;;;;;;;3.67;2.25;;;;;;;;;;5078362;27;20231;-53
2022/08/02 03:36:51;;;;;;;4.40;2.30;;;;;;;;;;5073812;27;20303;-52
2022/08/02 03:39:19;;;;;;;2.40;2.13;;;;;;;;;;5086097;27;20294;-53
2022/08/02 03:41:46;;;;;;;3.25;2.35;;;;;;;;;;5082185;27;20281;-53
2022/08/02 03:44:13;;;;;;;6.43;2.70;;;;;;;;;;5081990;27;20594;-53
2022/08/02 03:46:41;;;;;;;3.47;2.33;;;;;;;;;;5084409;27;20226;-53
2022/08/02 03:49:08;;;;;;;3.72;2.72;;;;;;;;;;5082696;27;20234;-53
2022/08/02 03:51:34;;;;;;;3.00;2.33;;;;;;;;;;5081116;27;20261;-53
2022/08/02 03:54:01;;;;;;;3.97;2.60;;;;;;;;;;5075030;27;20239;-53
2022/08/02 03:56:28;;;;;;;4.43;2.65;;;;;;;;;;5088412;27;20774;-53
2022/08/02 03:59:04;;;;;;;3.53;3.05;;;;;;;;;;5082152;27;20242;-53
2022/08/02 04:01:31;;;;;;;2.70;2.13;;;;;;;;;;5081478;27;20235;-53
2022/08/02 04:03:58;;;;;;;3.42;2.33;;;;;;;;;;5086694;27;20260;-53
2022/08/02 04:06:25;;;;;;;6.40;3.03;;;;;;;;;;5084237;27;20238;-52
2022/08/02 04:08:52;;;;;;;3.33;2.55;;;;;;;;;;5077919;27;20219;-53
2022/08/02 04:11:33;;;;;;;4.47;2.70;;;;;;;;;;5084101;27;20774;-53
2022/08/02 04:14:00;;;;;;;4.78;2.53;;;;;;;;;;5084244;27;20238;-54
2022/08/02 04:16:29;;;;;;;2.92;2.65;;;;;;;;;;5085683;27;20318;-53
2022/08/02 04:18:56;;;;;;;4.05;2.28;;;;;;;;;;5082866;27;20234;-53
2022/08/02 04:21:26;;;;;;;4.60;3.03;;;;;;;;;;5087256;27;20239;-53
2022/08/02 04:23:53;;;;;;;4.32;2.92;;;;;;;;;;5080913;27;20231;-53
2022/08/02 04:26:20;;;;;;;3.88;1.85;;;;;;;;;;5086502;27;20235;-53
2022/08/02 04:28:46;;;;;;;3.47;2.50;;;;;;;;;;5086709;27;20223;-53
2022/08/02 04:31:13;;;;;;;3.90;2.70;;;;;;;;;;5086083;27;20335;-52
2022/08/02 04:33:40;;;;;;;6.20;3.45;;;;;;;;;;5085930;27;20579;-53
2022/08/02 04:36:07;;;;;;;3.85;2.63;;;;;;;;;;5082403;27;20817;-52
2022/08/02 04:38:34;;;;;;;3.63;2.50;;;;;;;;;;5083178;27;20238;-52
2022/08/02 04:41:01;;;;;;;3.03;2.47;;;;;;;;;;5081108;27;20254;-52
2022/08/02 04:43:27;;;;;;;3.15;2.28;;;;;;;;;;5085911;27;20226;-53
2022/08/02 04:45:54;;;;;;;2.70;2.42;;;;;;;;;;5081415;27;20245;-52
2022/08/02 04:48:21;;;;;;;6.35;2.60;;;;;;;;;;5081460;27;20634;-53
2022/08/02 04:50:48;;;;;;;7.30;2.45;;;;;;;;;;5079606;27;20713;-52
2022/08/02 04:53:14;;;;;;;4.22;2.47;;;;;;;;;;5081276;27;22015;-53
2022/08/02 04:55:42;;;;;;;2.35;2.15;;;;;;;;;;5083498;27;20230;-53
2022/08/02 04:58:08;;;;;;;8.98;2.83;;;;;;;;;;5084011;27;20598;-53
2022/08/02 05:00:35;;;;;;;4.20;2.97;;;;;;;;;;5087101;27;20235;-53
2022/08/02 05:03:01;;;;;;;3.75;2.55;;;;;;;;;;5080683;27;20231;-53
2022/08/02 05:05:28;;;;;;;3.65;2.17;;;;;;;;;;5087051;27;20223;-53
2022/08/02 05:07:54;;;;;;;4.00;2.42;;;;;;;;;;5081556;27;20973;-53
2022/08/02 05:10:21;;;;;;;6.40;2.78;;;;;;;;;;5078038;27;20238;-53
2022/08/02 05:12:48;;;;;;;7.40;3.17;;;;;;;;;;5082756;27;20735;-52
2022/08/02 05:15:17;;;;;;;3.67;2.35;;;;;;;;;;5078831;27;20357;-53
2022/08/02 05:17:43;;;;;;;4.95;2.50;;;;;;;;;;5085805;27;20883;-54
2022/08/02 05:20:12;;;;;;;4.38;2.60;;;;;;;;;;5082496;27;20292;-54
2022/08/02 05:22:38;;;;;;;4.43;2.90;;;;;;;;;;5074811;27;20660;-54
2022/08/02 05:25:05;;;;;;;3.30;2.00;;;;;;;;;;5086254;27;20813;-53
2022/08/02 05:27:32;;;;;;;4.82;2.58;;;;;;;;;;5084733;27;20653;-53
2022/08/02 05:30:00;;;;;;;5.88;3.25;;;;;;;;;;5089967;27;20245;-52
2022/08/02 05:32:26;;;;;;;2.35;1.80;;;;;;;;;;5078802;27;20242;-53
2022/08/02 05:34:52;;;;;;;3.10;2.33;;;;;;;;;;5078712;27;20223;-53
2022/08/02 05:37:19;;;;;;;2.13;1.90;;;;;;;;;;5077905;27;20236;-53
2022/08/02 05:39:45;;;;;;;7.65;2.47;;;;;;;;;;5081888;27;20317;-53
2022/08/02 05:42:11;;;;;;;4.53;2.70;;;;;;;;;;5082114;27;20242;-54
2022/08/02 05:44:38;;;;;;;6.65;2.47;;;;;;;;;;5080118;27;20242;-52
2022/08/02 05:47:06;;;;;;;3.53;2.45;;;;;;;;;;5082283;27;20231;-53
2022/08/02 05:49:32;;;;;;;3.42;2.45;;;;;;;;;;5080571;27;20218;-53
2022/08/02 05:52:01;;;;;;;3.85;2.60;;;;;;;;;;5080254;27;20233;-52
2022/08/02 05:54:31;;;;;;;5.07;2.42;;;;;;;;;;5080845;27;20303;-52
2022/08/02 05:57:01;;;;;;;4.38;2.80;;;;;;;;;;5081330;27;20241;-52
2022/08/02 05:59:33;;;;;;;3.75;2.28;;;;;;;;;;5078535;27;20238;-54
2022/08/02 06:02:02;;;;;;;4.40;2.65;;;;;;;;;;5079159;27;20622;-54
2022/08/02 06:04:33;;;;;;;2.25;1.75;;;;;;;;;;5085649;27;20226;-53
2022/08/02 06:07:02;;;;;;;3.25;1.67;;;;;;;;;;5073940;27;20238;-53
2022/08/02 06:09:29;;;;;;;4.90;2.83;;;;;;;;;;5080851;27;20718;-52
2022/08/02 06:11:58;;;;;;;5.32;2.60;;;;;;;;;;5086110;27;20245;-53
2022/08/02 06:14:24;;;;;;;8.50;3.05;;;;;;;;;;5084166;27;20249;-52
2022/08/02 06:16:51;;;;;;;5.15;2.88;;;;;;;;;;5087555;27;20240;-53
2022/08/02 06:19:18;;;;;;;7.13;3.10;;;;;;;;;;5086379;27;20245;-52
2022/08/02 06:21:46;;;;;;;6.95;3.05;;;;;;;;;;5092427;27;20780;-52
2022/08/02 06:24:13;;;;;;;5.38;3.08;;;;;;;;;;5088214;27;20273;-53
2022/08/02 06:26:41;;;;;;;5.60;3.08;;;;;;;;;;5090341;27;20889;-53
2022/08/02 06:29:07;;;;;;;5.50;2.83;;;;;;;;;;5084154;27;20235;-53
2022/08/02 06:31:34;;;;;;;7.00;3.00;;;;;;;;;;5083922;27;20226;-53
2022/08/02 06:34:00;;;;;;;5.05;2.22;;;;;;;;;;5094318;27;20234;-53
2022/08/02 06:36:31;;;;;;;4.32;2.22;;;;;;;;;;5080650;27;20642;-53
2022/08/02 06:39:02;;;;;;;6.25;2.92;;;;;;;;;;5084062;27;20278;-53
2022/08/02 06:41:30;;;;;;;4.60;2.42;;;;;;;;;;5078425;27;20327;-53
2022/08/02 06:43:59;;;;;;;7.65;2.53;;;;;;;;;;5085222;27;20747;-54
2022/08/02 06:46:26;;;;;;;4.25;1.95;;;;;;;;;;5080097;27;20364;-52
2022/08/02 06:48:53;;;;;;;4.30;2.72;;;;;;;;;;5081709;27;20732;-52
2022/08/02 06:51:20;;;;;;;4.93;2.13;;;;;;;;;;5083267;27;20242;-53
2022/08/02 06:53:46;;;;;;;4.65;2.10;;;;;;;;;;5082974;27;20238;-54
2022/08/02 06:56:14;;;;;;;7.18;1.30;;;;;;;;;;5081121;27;20759;-52
2022/08/02 06:58:41;;;;;;;5.03;1.77;;;;;;;;;;5090349;27;20472;-53
2022/08/02 07:01:08;;;;;;;6.22;2.67;;;;;;;;;;5085443;27;20238;-54
2022/08/02 07:03:35;;;;;;;4.38;1.80;;;;;;;;;;5098390;27;20274;-53
2022/08/02 07:06:01;;;;;;;6.10;2.40;;;;;;;;;;5075490;27;20223;-53
2022/08/02 07:08:31;;;;;;;4.13;1.95;;;;;;;;;;5085349;27;20231;-53
2022/08/02 07:10:58;;;;;;;6.82;2.17;;;;;;;;;;5076874;27;20236;-54
2022/08/02 07:13:25;;;;;;;3.17;1.48;;;;;;;;;;5081938;27;20230;-56
2022/08/02 07:15:52;;;;;;;4.65;2.05;;;;;;;;;;5087611;27;20237;-54
2022/08/02 07:18:19;;;;;;;4.05;1.85;;;;;;;;;;5080776;27;20648;-54
2022/08/02 07:20:45;;;;;;;2.20;1.20;;;;;;;;;;5085530;27;20233;-53
2022/08/02 07:23:11;;;;;;;3.75;2.00;;;;;;;;;;5087935;27;20721;-54
2022/08/02 07:25:38;;;;;;;3.50;2.15;;;;;;;;;;5076668;27;20234;-54
2022/08/02 07:28:05;;;;;;;4.78;1.70;;;;;;;;;;5081381;27;20260;-53
2022/08/02 07:30:32;;;;;;;7.55;1.80;;;;;;;;;;5081331;27;20238;-53
2022/08/02 07:32:59;;;;;;;3.80;1.77;;;;;;;;;;5084668;27;20542;-53
2022/08/02 07:35:25;;;;;;;4.40;2.22;;;;;;;;;;5075541;27;20250;-54
2022/08/02 07:37:52;;;;;;;3.95;1.88;;;;;;;;;;5088088;27;20249;-53
2022/08/02 07:40:19;;;;;;;5.78;1.50;;;;;;;;;;5083832;27;20242;-54
2022/08/02 07:42:46;;;;;;;6.47;2.28;;;;;;;;;;5082235;27;20624;-53
2022/08/02 07:45:13;;;;;;;6.72;1.70;;;;;;;;;;5071991;27;20599;-53
2022/08/02 07:47:42;;;;;;;3.42;1.38;;;;;;;;;;5063946;27;20231;-52
2022/08/02 07:50:09;;;;;;;4.95;1.73;;;;;;;;;;5081505;27;20322;-52
2022/08/02 07:52:35;;;;;;;4.03;1.75;;;;;;;;;;5076703;27;20227;-53
2022/08/02 07:55:01;;;;;;;4.15;2.28;;;;;;;;;;5077652;27;20235;-53
2022/08/02 07:57:28;;;;;;;3.17;1.85;;;;;;;;;;5082238;27;20305;-54
2022/08/02 07:59:54;;;;;;;5.97;2.00;;;;;;;;;;5077890;27;20235;-53
2022/08/02 08:02:22;;;;;;;3.58;2.05;;;;;;;;;;5081578;27;20238;-55
2022/08/02 08:04:50;;;;;;;6.18;1.77;;;;;;;;;;5077903;27;20237;-54
2022/08/02 08:07:16;;;;;;;5.68;1.95;;;;;;;;;;5075143;27;20231;-55
2022/08/02 08:09:44;;;;;;;1.88;1.50;;;;;;;;;;5083219;27;20246;-54
2022/08/02 08:12:10;;;;;;;4.90;1.98;;;;;;;;;;5069360;27;20231;-53
2022/08/02 08:14:37;;;;;;;8.43;2.22;;;;;;;;;;5084666;27;20246;-54
2022/08/02 08:17:04;;;;;;;4.95;1.85;;;;;;;;;;5083212;27;20235;-53
2022/08/02 08:19:33;;;;;;;3.45;2.05;;;;;;;;;;5076508;27;20249;-54
2022/08/02 08:22:00;;;;;;;3.83;1.60;;;;;;;;;;5070693;27;20258;-54
2022/08/02 08:24:27;;;;;;;7.78;2.47;;;;;;;;;;5070492;27;20241;-54
2022/08/02 08:26:54;;;;;;;7.35;2.28;;;;;;;;;;5077511;27;20314;-52
2022/08/02 08:29:20;;;;;;;6.53;1.88;;;;;;;;;;5084936;27;20319;-53
2022/08/02 08:31:47;;;;;;;3.42;1.80;;;;;;;;;;5077565;27;20246;-54
2022/08/02 08:34:13;;;;;;;4.20;1.92;;;;;;;;;;5080408;27;20239;-53
2022/08/02 08:36:39;;;;;;;4.15;1.92;;;;;;;;;;5080966;27;20246;-52
2022/08/02 08:39:07;;;;;;;5.88;1.77;;;;;;;;;;5074647;28;20673;-53
2022/08/02 08:41:34;;;;;;;2.92;1.40;;;;;;;;;;5081972;27;20826;-52
2022/08/02 08:44:01;;;;;;;3.22;1.50;;;;;;;;;;5071920;27;20260;-52
2022/08/02 08:46:28;;;;;;;3.28;1.38;;;;;;;;;;5076893;27;20231;-54
2022/08/02 08:49:00;;;;;;;3.55;1.45;;;;;;;;;;5075927;27;20254;-53
2022/08/02 08:51:30;;;;;;;2.05;1.55;;;;;;;;;;5077921;27;20239;-54
2022/08/02 08:53:58;;;;;;;3.05;1.42;;;;;;;;;;5077309;27;20227;-54
2022/08/02 08:56:29;;;;;;;3.58;1.77;;;;;;;;;;5073322;27;20241;-54
2022/08/02 08:58:55;;;;;;;6.80;2.05;;;;;;;;;;5077216;27;20268;-54
2022/08/02 09:01:22;;;;;;;3.05;1.50;;;;;;;;;;5067616;27;20855;-52
2022/08/02 09:03:48;;;;;;;4.60;1.70;;;;;;;;;;5073168;27;20317;-52
2022/08/02 09:06:14;;;;;;;4.00;1.48;;;;;;;;;;5069657;27;20689;-54
2022/08/02 09:08:41;;;;;;;7.60;2.05;;;;;;;;;;5081873;27;20230;-54
2022/08/02 09:11:12;;;;;;;3.78;2.10;;;;;;;;;;5075299;27;20238;-53
2022/08/02 09:13:48;;;;;;;1.92;1.52;;;;;;;;;;5081360;27;20222;-53
2022/08/02 09:16:14;;;;;;;2.70;1.70;;;;;;;;;;5080395;27;20240;-52
2022/08/02 09:18:42;;;;;;;3.00;1.10;;;;;;;;;;5082917;27;20309;-52
2022/08/02 09:21:09;;;;;;;1.55;1.45;;;;;;;;;;5071731;27;20245;-53
2022/08/02 09:23:36;;;;;;;3.35;1.65;;;;;;;;;;5080718;27;20226;-51
2022/08/02 09:26:05;;;;;;;2.67;1.33;;;;;;;;;;5080911;27;20226;-53
2022/08/02 09:28:32;;;;;;;2.50;1.40;;;;;;;;;;5061327;28;20327;-52
2022/08/02 09:31:04;;;;;;;3.65;2.10;;;;;;;;;;5064174;28;20322;-52
2022/08/02 09:33:31;;;;;;;2.25;1.20;;;;;;;;;;5077315;27;20237;-53
2022/08/02 09:36:01;;;;;;;2.53;1.30;;;;;;;;;;5074818;27;20383;-52
2022/08/02 09:38:28;;;;;;;5.03;1.63;;;;;;;;;;5082323;27;20316;-52
2022/08/02 09:40:54;;;;;;;4.38;1.80;;;;;;;;;;5081103;27;20736;-56
2022/08/02 09:43:21;;;;;;;2.90;1.45;;;;;;;;;;5081254;27;20226;-53
2022/08/02 09:45:47;;;;;;;5.45;1.65;;;;;;;;;;5065467;27;20818;-52
2022/08/02 09:48:15;;;;;;;3.97;1.73;;;;;;;;;;5073161;27;20245;-53
2022/08/02 09:50:44;;;;;;;2.22;1.42;;;;;;;;;;5081803;27;20234;-53
2022/08/02 09:53:13;;;;;;;2.15;1.63;;;;;;;;;;5079478;27;20715;-53
2022/08/02 09:55:40;;;;;;;4.28;1.63;;;;;;;;;;5080029;27;20252;-53
2022/08/02 09:58:16;;;;;;;2.65;1.35;;;;;;;;;;5079784;27;20230;-52
2022/08/02 10:00:51;;;;;;;3.65;1.42;;;;;;;;;;5068457;27;20234;-53
2022/08/02 10:03:19;;;;;;;2.15;1.48;;;;;;;;;;5076459;27;20234;-51
2022/08/02 10:05:46;;;;;;;2.50;1.30;;;;;;;;;;5082305;27;20226;-52
2022/08/02 10:08:13;;;;;;;3.58;1.40;;;;;;;;;;5078213;27;20250;-52
2022/08/02 10:10:39;;;;;;;2.78;1.23;;;;;;;;;;5073006;27;20241;-52
2022/08/02 10:13:06;;;;;;;2.10;1.52;;;;;;;;;;5067570;27;20231;-53
2022/08/02 10:15:32;;;;;;;3.97;1.85;;;;;;;;;;5070978;27;20262;-54
2022/08/02 10:17:59;;;;;;;2.42;1.65;;;;;;;;;;5077124;27;20238;-52
2022/08/02 10:20:27;;;;;;;2.72;1.63;;;;;;;;;;5074582;27;20691;-52
2022/08/02 10:22:55;;;;;;;3.47;1.38;;;;;;;;;;5077180;27;20242;-54
2022/08/02 10:25:21;;;;;;;4.00;1.73;;;;;;;;;;5070197;27;20353;-52
2022/08/02 10:27:50;;;;;;;4.22;1.73;;;;;;;;;;5073454;27;20230;-52
2022/08/02 10:30:16;;;;;;;3.60;1.20;;;;;;;;;;5077127;27;20239;-53
2022/08/02 10:32:44;;;;;;;4.13;1.42;;;;;;;;;;5078939;27;20250;-54
2022/08/02 10:35:13;;;;;;;2.47;1.73;;;;;;;;;;5079273;27;20230;-53
2022/08/02 10:37:41;;;;;;;1.77;1.30;;;;;;;;;;5073129;27;20873;-53
2022/08/02 10:40:21;;;;;;;2.67;1.55;;;;;;;;;;5071931;27;20234;-53
2022/08/02 10:42:48;;;;;;;4.88;1.90;;;;;;;;;;5076764;27;20587;-53
2022/08/02 10:45:16;;;;;;;4.93;1.90;;;;;;;;;;5074709;27;20301;-52
2022/08/02 10:47:56;;;;;;;4.75;1.50;;;;;;;;;;5077551;27;20870;-52
2022/08/02 10:50:51;;;;;;;3.67;1.48;;;;;;;;;;5091013;27;20230;-52
2022/08/02 10:53:20;;;;;;;4.97;1.27;;;;;;;;;;5074891;27;20222;-52
2022/08/02 10:55:47;;;;;;;4.78;1.80;;;;;;;;;;5077942;27;20226;-52
2022/08/02 10:58:17;;;;;;;3.30;1.50;;;;;;;;;;5081124;27;20239;-52
2022/08/02 11:00:43;;;;;;;3.33;1.48;;;;;;;;;;5082049;27;20307;-53
2022/08/02 11:03:33;;;;;;;3.97;1.20;;;;;;;;;;5071464;27;20231;-53
2022/08/02 11:06:03;;;;;;;1.65;1.33;;;;;;;;;;5078865;27;20599;-52
2022/08/02 11:08:30;;;;;;;2.40;1.45;;;;;;;;;;5088247;27;20234;-53
2022/08/02 11:11:00;;;;;;;6.82;2.00;;;;;;;;;;5085970;27;20245;-53
2022/08/02 11:13:28;;;;;;;4.40;1.48;;;;;;;;;;5085196;27;20612;-52
2022/08/02 11:16:00;;;;;;;2.53;1.38;;;;;;;;;;5089022;28;20296;-53
2022/08/02 11:18:53;;;;;;;2.75;1.58;;;;;;;;;;5080100;27;20234;-52
2022/08/02 11:21:20;;;;;;;3.88;1.20;;;;;;;;;;5073718;27;20701;-52
2022/08/02 11:23:48;;;;;;;2.85;0.95;;;;;;;;;;5081014;27;20235;-52
2022/08/02 11:26:41;;;;;;;3.65;1.30;;;;;;;;;;5076590;27;20231;-53
2022/08/02 11:29:07;;;;;;;2.65;1.63;;;;;;;;;;5086049;27;20230;-53
2022/08/02 11:31:38;;;;;;;5.43;1.88;;;;;;;;;;5074140;27;20235;-53
2022/08/02 11:34:05;;;;;;;3.10;1.48;;;;;;;;;;5076465;27;20229;-52
2022/08/02 11:36:31;;;;;;;5.30;1.70;;;;;;;;;;5085367;27;20706;-52
2022/08/02 11:39:10;;;;;;;3.53;1.60;;;;;;;;;;5082170;27;20242;-53
2022/08/02 11:41:36;;;;;;;5.28;2.03;;;;;;;;;;5083576;28;20242;-53
2022/08/02 11:44:03;;;;;;;4.53;1.77;;;;;;;;;;5079763;27;20238;-53
2022/08/02 11:46:29;;;;;;;2.60;1.83;;;;;;;;;;5076658;27;20525;-53
2022/08/02 11:48:56;;;;;;;1.90;1.25;;;;;;;;;;5082978;27;20237;-53
2022/08/02 11:51:22;;;;;;;2.05;1.27;;;;;;;;;;5080471;27;20245;-52
2022/08/02 11:53:49;;;;;;;2.35;1.73;;;;;;;;;;5085897;27;20234;-52
2022/08/02 11:56:18;;;;;;;2.33;1.17;;;;;;;;;;5078683;27;20227;-53
2022/08/02 11:58:59;;;;;;;2.42;0.88;;;;;;;;;;5081780;27;20230;-53
2022/08/02 12:01:25;;;;;;;2.03;1.35;;;;;;;;;;5093218;27;20230;-53
2022/08/02 12:03:52;;;;;;;2.47;1.20;;;;;;;;;;5080959;27;20320;-52
2022/08/02 12:06:18;;;;;;;2.03;1.42;;;;;;;;;;5084757;27;20595;-54
2022/08/02 12:08:45;;;;;;;1.98;1.10;;;;;;;;;;5076400;28;20229;-53
2022/08/02 12:11:11;;;;;;;2.28;1.20;;;;;;;;;;5085525;28;20237;-53
2022/08/02 12:13:47;;;;;;;3.22;1.73;;;;;;;;;;5076751;27;20231;-55
2022/08/02 12:21:42;;;;;;;2.25;1.27;;;;;;;;;;5069892;27;20383;-52
2022/08/02 12:24:09;;;;;;;3.22;1.52;;;;;;;;;;5081329;27;20232;-52
2022/08/02 12:26:41;;;;;;;3.22;1.60;;;;;;;;;;5078280;27;20227;-54
2022/08/02 12:29:09;;;;;;;2.08;1.10;;;;;;;;;;5085421;27;20230;-57
2022/08/02 12:31:40;;;;;;;2.35;1.42;;;;;;;;;;5092378;27;20268;-52
2022/08/02 12:34:13;;;;;;;3.13;1.15;;;;;;;;;;5091759;27;20283;-52
2022/08/02 12:36:40;;;;;;;4.18;1.17;;;;;;;;;;5105316;27;20248;-53
2022/08/02 12:39:10;;;;;;;1.65;1.05;;;;;;;;;;5101023;27;20230;-54
2022/08/02 12:41:36;;;;;;;3.58;1.60;;;;;;;;;;5090333;27;20233;-55
2022/08/02 12:44:03;;;;;;;4.88;1.42;;;;;;;;;;5087835;27;20221;-54
2022/08/02 12:46:32;;;;;;;0.75;0.68;;;;;;;;;;5085476;27;20235;-52
2022/08/02 12:48:58;;;;;;;1.38;1.05;;;;;;;;;;5097187;27;20226;-53
2022/08/02 12:51:27;;;;;;;1.38;1.23;;;;;;;;;;5092309;27;20819;-53
2022/08/02 12:53:56;;;;;;;1.77;1.38;;;;;;;;;;5086070;27;20289;-52
2022/08/02 12:56:29;;;;;;;1.98;1.10;;;;;;;;;;5094622;27;20221;-58
2022/08/02 12:58:55;;;;;;;2.55;1.17;;;;;;;;;;5082498;27;20666;-53
2022/08/02 13:01:23;;;;;;;2.88;1.58;;;;;;;;;;5089746;27;20234;-52
2022/08/02 13:03:50;;;;;;;3.25;1.40;;;;;;;;;;5084028;27;20788;-52
2022/08/02 13:06:17;;;;;;;5.22;1.35;;;;;;;;;;5091505;27;20565;-60
2022/08/02 13:08:44;;;;;;;2.38;1.40;;;;;;;;;;5087847;27;20226;-52
2022/08/02 13:11:10;;;;;;;5.10;1.52;;;;;;;;;;5088499;27;20241;-51
2022/08/02 13:13:36;;;;;;;1.98;1.23;;;;;;;;;;5088500;27;20222;-52
2022/08/02 13:16:03;;;;;;;2.53;1.38;;;;;;;;;;5078742;27;20238;-53
2022/08/02 13:18:29;;;;;;;0.95;0.95;;;;;;;;;;5079080;28;20645;-51
2022/08/02 13:20:57;;;;;;;2.85;1.25;;;;;;;;;;5076269;27;20724;-52
2022/08/02 13:23:24;;;;;;;3.85;1.42;;;;;;;;;;5082410;27;20234;-52
2022/08/02 13:25:50;;;;;;;3.42;1.17;;;;;;;;;;5084253;27;20309;-53
2022/08/02 13:28:17;;;;;;;1.80;1.27;;;;;;;;;;5079174;27;20343;-51
2022/08/02 13:30:45;;;;;;;1.52;1.30;;;;;;;;;;5070275;27;20387;-55
2022/08/02 13:33:11;;;;;;;2.95;1.52;;;;;;;;;;5078508;27;20660;-54
2022/08/02 13:35:37;;;;;;;2.38;1.08;;;;;;;;;;5079806;27;20235;-53
2022/08/02 13:38:05;;;;;;;1.35;1.02;;;;;;;;;;5070541;27;20246;-52
2022/08/02 13:40:32;;;;;;;3.47;1.20;;;;;;;;;;5083339;27;20226;-52
2022/08/02 13:42:58;;;;;;;4.22;2.60;;;;;;;;;;5072622;27;20704;-53
2022/08/02 13:45:25;;;;;;;2.70;1.73;;;;;;;;;;5082526;27;20753;-52
2022/08/02 13:47:51;;;;;;;4.18;1.50;;;;;;;;;;5074496;27;20227;-53
2022/08/02 13:50:17;;;;;;;1.48;1.15;;;;;;;;;;5080129;27;20226;-54
2022/08/02 13:52:43;;;;;;;2.03;1.13;;;;;;;;;;5073042;27;20729;-53
2022/08/02 13:55:11;;;;;;;2.50;1.58;;;;;;;;;;5075006;28;20230;-52
2022/08/02 13:57:38;;;;;;;3.40;1.50;;;;;;;;;;5085607;27;20226;-52
2022/08/02 14:00:04;;;;;;;3.30;1.65;;;;;;;;;;5075819;28;20241;-53
2022/08/02 14:02:32;;;;;;;2.00;1.40;;;;;;;;;;5073279;27;20235;-52
2022/08/02 14:04:58;;;;;;;2.05;1.50;;;;;;;;;;5080268;27;20242;-52
2022/08/02 14:07:24;;;;;;;2.80;1.10;;;;;;;;;;5083901;28;20219;-53
2022/08/02 14:09:51;;;;;;;3.30;1.60;;;;;;;;;;5085338;27;20223;-54
2022/08/02 14:12:18;;;;;;;3.72;1.88;;;;;;;;;;5081987;27;20241;-51
2022/08/02 14:14:44;;;;;;;7.30;1.92;;;;;;;;;;5083146;27;20704;-53
2022/08/02 14:17:12;;;;;;;2.65;1.50;;;;;;;;;;5077314;27;20237;-53
2022/08/02 14:19:38;;;;;;;2.50;1.58;;;;;;;;;;5071610;27;20238;-52
2022/08/02 14:22:04;;;;;;;3.47;1.90;;;;;;;;;;5077840;27;20234;-52
2022/08/02 14:24:31;;;;;;;2.35;1.55;;;;;;;;;;5069586;27;20234;-53
2022/08/02 14:26:57;;;;;;;1.55;1.38;;;;;;;;;;5073218;27;20633;-53
2022/08/02 14:29:25;;;;;;;1.98;1.30;;;;;;;;;;5077927;27;20728;-52
2022/08/02 14:31:51;;;;;;;4.18;1.77;;;;;;;;;;5081508;27;20230;-52
2022/08/02 14:34:17;;;;;;;5.13;1.73;;;;;;;;;;5076623;27;20230;-53
2022/08/02 14:36:44;;;;;;;4.03;1.77;;;;;;;;;;5073228;27;20233;-53
2022/08/02 14:39:11;;;;;;;5.35;2.08;;;;;;;;;;5066021;27;20237;-53
2022/08/02 14:41:37;;;;;;;3.00;1.42;;;;;;;;;;5070818;27;20239;-54
2022/08/02 14:44:04;;;;;;;8.70;5.68;;;;;;;;;;5072758;27;20234;-51
2022/08/02 14:46:31;;;;;;;2.65;2.25;;;;;;;;;;5076524;27;20234;-53
2022/08/02 14:49:00;;;;;;;3.22;2.67;;;;;;;;;;5067115;27;20473;-52
2022/08/02 14:51:26;;;;;;;3.72;1.90;;;;;;;;;;5069291;27;20243;-54